Rechercher aéroport 
image banner adimage banner adimage banner ad
image banner ad

CL13 - Brian Ranch

Situé à Palmdale, United States

ICAO - CL13, IATA -

Données fournies par Airmate  

Information générale

Coordonnées: N34°30'55" W117°45'43"
Élévation : 3230 feet MSL.
Variation magnétique : 14° East
Voir autres Aéroports à California

Données opérationnelles

Special qualification required
Heure actuelle UTC:
Heure actuelle locale:
Météo à : KPMD - Palmdale Usaf Plant 42 ( 32 km )
METAR: KPMD 262353Z VRB04KT 10SM SCT120 30/13 A2998 RMK AO2 SLP119 6//// T03000133 10317 20267 56006
TAF: KPMD 262346Z 2700/2724 24007KT P6SM VCSH BKN120 FM270400 23007KT P6SM SCT150 FM272200 23010KT P6SM VCTS BKN090CB
Voir NOTAMs / SUP AIP / TFR affectant cet aéroport [VIEW]
Fréquences de communication: [VIEW]

Pistes:

Identifiant RWYQFULongueur (ft)Largeur (ft)SurfaceLDA (ft)
03146250EARTH
21146250EARTH

Coordonnées de l'aéroport

Adresse: Palmdale United States

Vue satellite de CL13